sensor_id;sensor_type;location;lat;lon;timestamp;pressure;altitude;pressure_sealevel;temperature;humidity
60974;BME280;46846;51.528;5.076;2023-09-30T00:00:42;101965.97;;;14.13;71.37
60974;BME280;46846;51.528;5.076;2023-09-30T00:03:08;101963.38;;;14.10;71.53
60974;BME280;46846;51.528;5.076;2023-09-30T00:05:33;101972.34;;;14.09;71.46
60974;BME280;46846;51.528;5.076;2023-09-30T00:07:58;101978.63;;;14.08;71.46
60974;BME280;46846;51.528;5.076;2023-09-30T00:10:23;101975.97;;;14.06;71.40
60974;BME280;46846;51.528;5.076;2023-09-30T00:12:49;101976.91;;;14.05;71.44
60974;BME280;46846;51.528;5.076;2023-09-30T00:15:14;101965.38;;;14.03;71.34
60974;BME280;46846;51.528;5.076;2023-09-30T00:17:39;101967.16;;;14.03;71.40
60974;BME280;46846;51.528;5.076;2023-09-30T00:20:05;101966.34;;;14.01;71.34
60974;BME280;46846;51.528;5.076;2023-09-30T00:22:30;101958.34;;;13.99;71.56
60974;BME280;46846;51.528;5.076;2023-09-30T00:24:55;101946.81;;;13.97;71.60
60974;BME280;46846;51.528;5.076;2023-09-30T00:27:21;101961.13;;;13.96;71.61
60974;BME280;46846;51.528;5.076;2023-09-30T00:29:47;101970.09;;;13.95;71.44
60974;BME280;46846;51.528;5.076;2023-09-30T00:32:12;101976.38;;;13.94;71.47
60974;BME280;46846;51.528;5.076;2023-09-30T00:34:37;101982.66;;;13.93;71.62
60974;BME280;46846;51.528;5.076;2023-09-30T00:37:02;101994.25;;;13.92;71.55
60974;BME280;46846;51.528;5.076;2023-09-30T00:39:28;101997.00;;;13.90;71.45
60974;BME280;46846;51.528;5.076;2023-09-30T00:41:57;101989.00;;;13.89;71.37
60974;BME280;46846;51.528;5.076;2023-09-30T00:44:23;101972.13;;;13.87;71.73
60974;BME280;46846;51.528;5.076;2023-09-30T00:46:49;101965.03;;;13.86;71.49
60974;BME280;46846;51.528;5.076;2023-09-30T00:49:15;101982.88;;;13.85;71.64
60974;BME280;46846;51.528;5.076;2023-09-30T00:51:40;101984.72;;;13.83;71.55
60974;BME280;46846;51.528;5.076;2023-09-30T00:54:05;101986.56;;;13.81;71.58
60974;BME280;46846;51.528;5.076;2023-09-30T00:56:31;101987.47;;;13.80;71.63
60974;BME280;46846;51.528;5.076;2023-09-30T00:58:57;101983.97;;;13.78;71.65
60974;BME280;46846;51.528;5.076;2023-09-30T01:01:23;101989.31;;;13.78;71.63
60974;BME280;46846;51.528;5.076;2023-09-30T01:03:48;101985.78;;;13.77;71.77
60974;BME280;46846;51.528;5.076;2023-09-30T01:06:14;101981.28;;;13.78;71.60
60974;BME280;46846;51.528;5.076;2023-09-30T01:08:39;101998.28;;;13.77;71.66
60974;BME280;46846;51.528;5.076;2023-09-30T01:11:05;102007.25;;;13.74;71.79
60974;BME280;46846;51.528;5.076;2023-09-30T01:13:34;102016.22;;;13.73;71.83
60974;BME280;46846;51.528;5.076;2023-09-30T01:16:09;102026.03;;;13.73;71.81
60974;BME280;46846;51.528;5.076;2023-09-30T01:18:35;102027.91;;;13.69;71.92
60974;BME280;46846;51.528;5.076;2023-09-30T01:21:05;102035.06;;;13.69;71.72
60974;BME280;46846;51.528;5.076;2023-09-30T01:23:31;102018.19;;;13.66;71.67
60974;BME280;46846;51.528;5.076;2023-09-30T01:25:56;102020.88;;;13.66;71.89
60974;BME280;46846;51.528;5.076;2023-09-30T01:28:22;102014.66;;;13.64;71.84
60974;BME280;46846;51.528;5.076;2023-09-30T01:30:48;102015.59;;;13.63;71.98
60974;BME280;46846;51.528;5.076;2023-09-30T01:33:13;102005.81;;;13.62;71.92
60974;BME280;46846;51.528;5.076;2023-09-30T01:35:39;102004.94;;;13.62;71.78
60974;BME280;46846;51.528;5.076;2023-09-30T01:38:04;102012.09;;;13.61;71.81
60974;BME280;46846;51.528;5.076;2023-09-30T01:40:29;102010.38;;;13.59;71.76
60974;BME280;46846;51.528;5.076;2023-09-30T01:42:56;102009.50;;;13.58;71.75
60974;BME280;46846;51.528;5.076;2023-09-30T01:45:21;102006.88;;;13.57;71.97
60974;BME280;46846;51.528;5.076;2023-09-30T01:47:47;102006.91;;;13.55;71.96
60974;BME280;46846;51.528;5.076;2023-09-30T01:50:12;102005.16;;;13.54;71.98
60974;BME280;46846;51.528;5.076;2023-09-30T01:52:37;102004.28;;;13.53;71.75
60974;BME280;46846;51.528;5.076;2023-09-30T01:55:03;101999.88;;;13.51;71.88
60974;BME280;46846;51.528;5.076;2023-09-30T01:57:28;102003.47;;;13.50;71.97
60974;BME280;46846;51.528;5.076;2023-09-30T01:59:53;102005.28;;;13.49;71.97
60974;BME280;46846;51.528;5.076;2023-09-30T02:02:19;102001.72;;;13.49;71.92
60974;BME280;46846;51.528;5.076;2023-09-30T02:04:44;102009.78;;;13.47;71.92
60974;BME280;46846;51.528;5.076;2023-09-30T02:07:09;102012.47;;;13.47;71.77
60974;BME280;46846;51.528;5.076;2023-09-30T02:09:34;102012.53;;;13.46;72.06
60974;BME280;46846;51.528;5.076;2023-09-30T02:12:00;102016.09;;;13.45;71.72
60974;BME280;46846;51.528;5.076;2023-09-30T02:14:25;102009.00;;;13.44;71.86
60974;BME280;46846;51.528;5.076;2023-09-30T02:16:50;102017.91;;;13.43;71.81
60974;BME280;46846;51.528;5.076;2023-09-30T02:19:16;102017.03;;;13.42;71.94
60974;BME280;46846;51.528;5.076;2023-09-30T02:21:41;102019.75;;;13.40;71.84
60974;BME280;46846;51.528;5.076;2023-09-30T02:24:07;102009.06;;;13.40;71.79
60974;BME280;46846;51.528;5.076;2023-09-30T02:26:32;102004.66;;;13.38;72.00
60974;BME280;46846;51.528;5.076;2023-09-30T02:28:58;102013.63;;;13.37;71.92
60974;BME280;46846;51.528;5.076;2023-09-30T02:31:23;102024.31;;;13.37;72.04
60974;BME280;46846;51.528;5.076;2023-09-30T02:33:49;102021.66;;;13.35;71.77
60974;BME280;46846;51.528;5.076;2023-09-30T02:36:14;102012.81;;;13.33;71.81
60974;BME280;46846;51.528;5.076;2023-09-30T02:38:40;102007.47;;;13.33;72.00
60974;BME280;46846;51.528;5.076;2023-09-30T02:41:06;101998.63;;;13.31;71.89
60974;BME280;46846;51.528;5.076;2023-09-30T02:43:31;101995.13;;;13.29;71.88
60974;BME280;46846;51.528;5.076;2023-09-30T02:45:57;101998.69;;;13.28;72.01
60974;BME280;46846;51.528;5.076;2023-09-30T02:48:23;101996.09;;;13.26;72.19
60974;BME280;46846;51.528;5.076;2023-09-30T02:50:48;102003.19;;;13.27;72.24
60974;BME280;46846;51.528;5.076;2023-09-30T02:53:13;102001.47;;;13.25;71.91
60974;BME280;46846;51.528;5.076;2023-09-30T02:55:41;102006.84;;;13.23;72.05
60974;BME280;46846;51.528;5.076;2023-09-30T02:58:07;102007.75;;;13.22;71.94
60974;BME280;46846;51.528;5.076;2023-09-30T03:00:33;102006.00;;;13.21;72.12
60974;BME280;46846;51.528;5.076;2023-09-30T03:02:59;102008.69;;;13.21;72.24
60974;BME280;46846;51.528;5.076;2023-09-30T03:05:25;102011.34;;;13.21;72.05
60974;BME280;46846;51.528;5.076;2023-09-30T03:07:52;102010.56;;;13.18;72.29
60974;BME280;46846;51.528;5.076;2023-09-30T03:10:17;102014.13;;;13.18;72.01
60974;BME280;46846;51.528;5.076;2023-09-30T03:12:48;102010.59;;;13.16;72.29
60974;BME280;46846;51.528;5.076;2023-09-30T03:15:14;102007.06;;;13.16;72.27
60974;BME280;46846;51.528;5.076;2023-09-30T03:17:40;101995.50;;;13.13;72.02
60974;BME280;46846;51.528;5.076;2023-09-30T03:20:05;101993.75;;;13.12;72.27
60974;BME280;46846;51.528;5.076;2023-09-30T03:22:34;101984.88;;;13.12;72.27
60974;BME280;46846;51.528;5.076;2023-09-30T03:25:01;101979.56;;;13.10;72.36
60974;BME280;46846;51.528;5.076;2023-09-30T03:27:26;101985.84;;;13.09;72.36
60974;BME280;46846;51.528;5.076;2023-09-30T03:29:51;101987.63;;;13.09;72.08
60974;BME280;46846;51.528;5.076;2023-09-30T03:32:16;101989.47;;;13.07;72.18
60974;BME280;46846;51.528;5.076;2023-09-30T03:34:42;101992.09;;;13.08;72.23
60974;BME280;46846;51.528;5.076;2023-09-30T03:37:11;101996.63;;;13.06;72.15
60974;BME280;46846;51.528;5.076;2023-09-30T03:39:36;102001.09;;;13.04;72.42
60974;BME280;46846;51.528;5.076;2023-09-30T03:42:01;102004.69;;;13.03;72.41
60974;BME280;46846;51.528;5.076;2023-09-30T03:44:28;102001.19;;;13.01;72.50
60974;BME280;46846;51.528;5.076;2023-09-30T03:46:53;102002.97;;;13.01;72.36
60974;BME280;46846;51.528;5.076;2023-09-30T03:49:18;101993.22;;;12.99;72.51
60974;BME280;46846;51.528;5.076;2023-09-30T03:51:45;101987.91;;;12.98;72.19
60974;BME280;46846;51.528;5.076;2023-09-30T03:54:10;101994.16;;;12.97;72.55
60974;BME280;46846;51.528;5.076;2023-09-30T03:56:36;101983.47;;;12.97;72.29
60974;BME280;46846;51.528;5.076;2023-09-30T03:59:03;101989.78;;;12.94;72.42
60974;BME280;46846;51.528;5.076;2023-09-30T04:01:29;101988.94;;;12.92;72.26
60974;BME280;46846;51.528;5.076;2023-09-30T04:03:54;101993.38;;;12.93;72.37
60974;BME280;46846;51.528;5.076;2023-09-30T04:06:20;101988.09;;;12.92;72.44
60974;BME280;46846;51.528;5.076;2023-09-30T04:08:45;101992.53;;;12.91;72.54
60974;BME280;46846;51.528;5.076;2023-09-30T04:11:11;101999.72;;;12.89;72.33
60974;BME280;46846;51.528;5.076;2023-09-30T04:13:42;101997.06;;;12.89;72.50
60974;BME280;46846;51.528;5.076;2023-09-30T04:16:07;101982.84;;;12.87;72.48
60974;BME280;46846;51.528;5.076;2023-09-30T04:18:32;101982.84;;;12.87;72.36
60974;BME280;46846;51.528;5.076;2023-09-30T04:20:57;101985.56;;;12.85;72.28
60974;BME280;46846;51.528;5.076;2023-09-30T04:23:23;101982.94;;;12.84;72.23
60974;BME280;46846;51.528;5.076;2023-09-30T04:25:48;101974.94;;;12.82;72.32
60974;BME280;46846;51.528;5.076;2023-09-30T04:28:14;101982.97;;;12.82;72.19
60974;BME280;46846;51.528;5.076;2023-09-30T04:30:41;101984.78;;;12.82;72.57
60974;BME280;46846;51.528;5.076;2023-09-30T04:33:06;101987.47;;;12.80;72.36
60974;BME280;46846;51.528;5.076;2023-09-30T04:35:33;101997.22;;;12.81;72.50
60974;BME280;46846;51.528;5.076;2023-09-30T04:38:00;101986.56;;;12.80;72.45
60974;BME280;46846;51.528;5.076;2023-09-30T04:40:29;101988.41;;;12.79;72.08
60974;BME280;46846;51.528;5.076;2023-09-30T04:42:54;101997.25;;;12.80;72.16
60974;BME280;46846;51.528;5.076;2023-09-30T04:45:23;102003.53;;;12.79;72.33
60974;BME280;46846;51.528;5.076;2023-09-30T04:47:49;101996.44;;;12.78;72.50
60974;BME280;46846;51.528;5.076;2023-09-30T04:50:15;102000.94;;;12.76;72.42
60974;BME280;46846;51.528;5.076;2023-09-30T04:52:41;102009.00;;;12.74;72.54
60974;BME280;46846;51.528;5.076;2023-09-30T04:55:06;102012.56;;;12.73;72.24
60974;BME280;46846;51.528;5.076;2023-09-30T04:57:33;102009.06;;;12.73;72.50
60974;BME280;46846;51.528;5.076;2023-09-30T04:59:58;102005.50;;;12.72;72.28
60974;BME280;46846;51.528;5.076;2023-09-30T05:02:24;101999.31;;;12.70;72.32
60974;BME280;46846;51.528;5.076;2023-09-30T05:04:50;102002.00;;;12.68;72.24
60974;BME280;46846;51.528;5.076;2023-09-30T05:07:15;101998.50;;;12.66;72.62
60974;BME280;46846;51.528;5.076;2023-09-30T05:09:40;102003.78;;;12.68;72.54
60974;BME280;46846;51.528;5.076;2023-09-30T05:12:07;102001.19;;;12.66;72.31
60974;BME280;46846;51.528;5.076;2023-09-30T05:14:32;102010.97;;;12.66;72.23
60974;BME280;46846;51.528;5.076;2023-09-30T05:16:58;102017.22;;;12.65;72.53
60974;BME280;46846;51.528;5.076;2023-09-30T05:19:24;102027.03;;;12.64;72.38
60974;BME280;46846;51.528;5.076;2023-09-30T05:21:49;102023.50;;;12.64;72.38
60974;BME280;46846;51.528;5.076;2023-09-30T05:24:14;102027.09;;;12.63;72.62
60974;BME280;46846;51.528;5.076;2023-09-30T05:26:40;102021.78;;;12.61;72.27
60974;BME280;46846;51.528;5.076;2023-09-30T05:29:05;102020.00;;;12.60;72.71
60974;BME280;46846;51.528;5.076;2023-09-30T05:31:30;102015.59;;;12.59;72.58
60974;BME280;46846;51.528;5.076;2023-09-30T05:33:56;102019.19;;;12.58;72.53
60974;BME280;46846;51.528;5.076;2023-09-30T05:36:21;102028.09;;;12.57;72.54
60974;BME280;46846;51.528;5.076;2023-09-30T05:38:47;102027.22;;;12.56;72.46
60974;BME280;46846;51.528;5.076;2023-09-30T05:41:14;102020.16;;;12.54;72.64
60974;BME280;46846;51.528;5.076;2023-09-30T05:43:39;102024.59;;;12.53;72.55
60974;BME280;46846;51.528;5.076;2023-09-30T05:46:05;102027.34;;;12.52;72.63
60974;BME280;46846;51.528;5.076;2023-09-30T05:48:31;102039.78;;;12.51;72.73
60974;BME280;46846;51.528;5.076;2023-09-30T05:50:56;102038.94;;;12.51;72.53
60974;BME280;46846;51.528;5.076;2023-09-30T05:53:21;102042.50;;;12.50;72.48
60974;BME280;46846;51.528;5.076;2023-09-30T05:55:47;102044.31;;;12.49;72.41
60974;BME280;46846;51.528;5.076;2023-09-30T05:58:14;102052.31;;;12.49;72.50
60974;BME280;46846;51.528;5.076;2023-09-30T06:00:40;102051.41;;;12.49;72.82
60974;BME280;46846;51.528;5.076;2023-09-30T06:03:07;102047.00;;;12.48;72.55
60974;BME280;46846;51.528;5.076;2023-09-30T06:05:32;102053.25;;;12.47;72.64
60974;BME280;46846;51.528;5.076;2023-09-30T06:07:59;102055.91;;;12.47;72.79
60974;BME280;46846;51.528;5.076;2023-09-30T06:10:25;102053.28;;;12.45;72.45
60974;BME280;46846;51.528;5.076;2023-09-30T06:12:51;102048.84;;;12.44;72.35
60974;BME280;46846;51.528;5.076;2023-09-30T06:15:24;102048.00;;;12.43;72.42
60974;BME280;46846;51.528;5.076;2023-09-30T06:17:51;102038.19;;;12.42;72.46
60974;BME280;46846;51.528;5.076;2023-09-30T06:20:17;102037.38;;;12.40;72.61
60974;BME280;46846;51.528;5.076;2023-09-30T06:22:45;102043.53;;;12.42;72.69
60974;BME280;46846;51.528;5.076;2023-09-30T06:25:14;102048.03;;;12.40;72.39
60974;BME280;46846;51.528;5.076;2023-09-30T06:27:41;102053.38;;;12.40;72.61
60974;BME280;46846;51.528;5.076;2023-09-30T06:30:07;102047.19;;;12.40;72.53
60974;BME280;46846;51.528;5.076;2023-09-30T06:32:34;102048.09;;;12.39;72.70
60974;BME280;46846;51.528;5.076;2023-09-30T06:35:00;102045.44;;;12.39;72.57
60974;BME280;46846;51.528;5.076;2023-09-30T06:37:25;102049.00;;;12.38;72.62
60974;BME280;46846;51.528;5.076;2023-09-30T06:39:51;102054.38;;;12.36;72.71
60974;BME280;46846;51.528;5.076;2023-09-30T06:42:17;102061.50;;;12.36;72.75
60974;BME280;46846;51.528;5.076;2023-09-30T06:44:42;102057.06;;;12.35;72.62
60974;BME280;46846;51.528;5.076;2023-09-30T06:47:07;102058.84;;;12.34;72.50
60974;BME280;46846;51.528;5.076;2023-09-30T06:49:37;102073.13;;;12.33;72.52
60974;BME280;46846;51.528;5.076;2023-09-30T06:52:02;102079.38;;;12.32;72.77
60974;BME280;46846;51.528;5.076;2023-09-30T06:54:28;102090.03;;;12.32;72.71
60974;BME280;46846;51.528;5.076;2023-09-30T06:56:53;102092.72;;;12.32;72.62
60974;BME280;46846;51.528;5.076;2023-09-30T06:59:19;102098.06;;;12.30;72.67
60974;BME280;46846;51.528;5.076;2023-09-30T07:01:44;102103.41;;;12.30;72.73
60974;BME280;46846;51.528;5.076;2023-09-30T07:04:10;102102.56;;;12.30;72.74
60974;BME280;46846;51.528;5.076;2023-09-30T07:06:36;102101.66;;;12.29;72.79
60974;BME280;46846;51.528;5.076;2023-09-30T07:09:02;102096.38;;;12.28;72.46
60974;BME280;46846;51.528;5.076;2023-09-30T07:11:28;102090.19;;;12.26;72.66
60974;BME280;46846;51.528;5.076;2023-09-30T07:13:54;102099.06;;;12.26;72.83
60974;BME280;46846;51.528;5.076;2023-09-30T07:16:19;102114.16;;;12.27;72.59
60974;BME280;46846;51.528;5.076;2023-09-30T07:18:44;102117.75;;;12.26;72.76
60974;BME280;46846;51.528;5.076;2023-09-30T07:21:09;102126.59;;;12.28;72.50
60974;BME280;46846;51.528;5.076;2023-09-30T07:23:35;102133.75;;;12.28;72.86
60974;BME280;46846;51.528;5.076;2023-09-30T07:26:00;102138.16;;;12.29;72.82
60974;BME280;46846;51.528;5.076;2023-09-30T07:28:25;102139.94;;;12.28;72.72
60974;BME280;46846;51.528;5.076;2023-09-30T07:30:51;102138.16;;;12.29;72.46
60974;BME280;46846;51.528;5.076;2023-09-30T07:33:16;102141.78;;;12.26;72.69
60974;BME280;46846;51.528;5.076;2023-09-30T07:35:42;102133.75;;;12.28;72.54
60974;BME280;46846;51.528;5.076;2023-09-30T07:38:07;102146.19;;;12.29;72.73
60974;BME280;46846;51.528;5.076;2023-09-30T07:40:32;102144.34;;;12.31;72.37
60974;BME280;46846;51.528;5.076;2023-09-30T07:42:58;102141.69;;;12.29;72.71
60974;BME280;46846;51.528;5.076;2023-09-30T07:45:23;102143.53;;;12.27;72.58
60974;BME280;46846;51.528;5.076;2023-09-30T07:47:48;102143.56;;;12.26;72.80
60974;BME280;46846;51.528;5.076;2023-09-30T07:50:14;102144.41;;;12.28;72.86
60974;BME280;46846;51.528;5.076;2023-09-30T07:52:39;102142.63;;;12.27;72.62
60974;BME280;46846;51.528;5.076;2023-09-30T07:55:05;102143.56;;;12.26;72.67
60974;BME280;46846;51.528;5.076;2023-09-30T07:57:30;102149.75;;;12.28;72.96
60974;BME280;46846;51.528;5.076;2023-09-30T07:59:56;102149.75;;;12.28;72.62
60974;BME280;46846;51.528;5.076;2023-09-30T08:02:21;102151.50;;;12.29;72.98
60974;BME280;46846;51.528;5.076;2023-09-30T08:04:47;102147.94;;;12.30;72.94
60974;BME280;46846;51.528;5.076;2023-09-30T08:07:13;102147.03;;;12.29;73.01
60974;BME280;46846;51.528;5.076;2023-09-30T08:09:38;102144.34;;;12.31;72.65
60974;BME280;46846;51.528;5.076;2023-09-30T08:12:04;102143.44;;;12.32;72.57
60974;BME280;46846;51.528;5.076;2023-09-30T08:14:29;102132.84;;;12.27;72.72
60974;BME280;46846;51.528;5.076;2023-09-30T08:16:54;102132.84;;;12.27;72.75
60974;BME280;46846;51.528;5.076;2023-09-30T08:19:20;102128.44;;;12.26;73.10
60974;BME280;46846;51.528;5.076;2023-09-30T08:21:46;102128.41;;;12.28;72.69
60974;BME280;46846;51.528;5.076;2023-09-30T08:24:11;102132.78;;;12.30;72.81
60974;BME280;46846;51.528;5.076;2023-09-30T08:26:36;102124.81;;;12.29;72.79
60974;BME280;46846;51.528;5.076;2023-09-30T08:29:02;102124.78;;;12.30;73.08
60974;BME280;46846;51.528;5.076;2023-09-30T08:31:27;102123.88;;;12.32;72.95
60974;BME280;46846;51.528;5.076;2023-09-30T08:33:53;102117.56;;;12.34;73.00
60974;BME280;46846;51.528;5.076;2023-09-30T08:36:18;102118.44;;;12.36;72.65
60974;BME280;46846;51.528;5.076;2023-09-30T08:38:43;102120.31;;;12.33;72.75
60974;BME280;46846;51.528;5.076;2023-09-30T08:41:09;102118.47;;;12.35;73.10
60974;BME280;46846;51.528;5.076;2023-09-30T08:43:38;102114.03;;;12.35;72.88
60974;BME280;46846;51.528;5.076;2023-09-30T08:46:04;102119.28;;;12.38;73.04
60974;BME280;46846;51.528;5.076;2023-09-30T08:48:29;102114.88;;;12.37;73.13
60974;BME280;46846;51.528;5.076;2023-09-30T08:50:58;102112.19;;;12.37;73.19
60974;BME280;46846;51.528;5.076;2023-09-30T08:53:23;102115.78;;;12.36;73.20
60974;BME280;46846;51.528;5.076;2023-09-30T08:55:55;102122.84;;;12.39;73.37
60974;BME280;46846;51.528;5.076;2023-09-30T08:58:24;102128.91;;;12.46;73.21
60974;BME280;46846;51.528;5.076;2023-09-30T09:00:50;102142.19;;;12.49;72.97
60974;BME280;46846;51.528;5.076;2023-09-30T09:03:15;102148.41;;;12.49;72.74
60974;BME280;46846;51.528;5.076;2023-09-30T09:05:41;102145.66;;;12.54;72.81
60974;BME280;46846;51.528;5.076;2023-09-30T09:08:06;102144.69;;;12.58;72.64
60974;BME280;46846;51.528;5.076;2023-09-30T09:10:33;102150.91;;;12.57;72.88
60974;BME280;46846;51.528;5.076;2023-09-30T09:12:59;102142.88;;;12.58;72.78
60974;BME280;46846;51.528;5.076;2023-09-30T09:15:28;102155.38;;;12.58;72.80
60974;BME280;46846;51.528;5.076;2023-09-30T09:17:53;102167.78;;;12.59;72.78
60974;BME280;46846;51.528;5.076;2023-09-30T09:20:20;102164.22;;;12.60;72.97
60974;BME280;46846;51.528;5.076;2023-09-30T09:22:46;102170.38;;;12.64;72.92
60974;BME280;46846;51.528;5.076;2023-09-30T09:25:12;102167.69;;;12.64;72.77
60974;BME280;46846;51.528;5.076;2023-09-30T09:27:38;102166.75;;;12.66;72.71
60974;BME280;46846;51.528;5.076;2023-09-30T09:35:22;102179.88;;;12.77;72.86
60974;BME280;46846;51.528;5.076;2023-09-30T09:37:55;102182.44;;;12.82;72.22
60974;BME280;46846;51.528;5.076;2023-09-30T09:40:22;102193.03;;;12.85;73.00
60974;BME280;46846;51.528;5.076;2023-09-30T09:42:48;102182.31;;;12.87;72.46
60974;BME280;46846;51.528;5.076;2023-09-30T09:45:15;102186.03;;;12.81;72.47
60974;BME280;46846;51.528;5.076;2023-09-30T09:47:41;102185.00;;;12.87;72.80
60974;BME280;46846;51.528;5.076;2023-09-30T09:50:07;102187.66;;;12.88;72.95
60974;BME280;46846;51.528;5.076;2023-09-30T09:52:33;102180.50;;;12.87;73.01
60974;BME280;46846;51.528;5.076;2023-09-30T09:54:59;102186.63;;;12.94;73.12
60974;BME280;46846;51.528;5.076;2023-09-30T09:57:26;102195.34;;;13.01;73.21
60974;BME280;46846;51.528;5.076;2023-09-30T09:59:52;102189.03;;;13.05;73.29
60974;BME280;46846;51.528;5.076;2023-09-30T10:02:19;102193.59;;;13.01;72.74
60974;BME280;46846;51.528;5.076;2023-09-30T10:04:44;102198.91;;;13.03;73.32
60974;BME280;46846;51.528;5.076;2023-09-30T10:07:15;102194.38;;;13.05;74.01
60974;BME280;46846;51.528;5.076;2023-09-30T10:09:43;102198.81;;;13.06;74.01
60974;BME280;46846;51.528;5.076;2023-09-30T10:12:10;102204.94;;;13.11;73.49
60974;BME280;46846;51.528;5.076;2023-09-30T10:14:36;102192.38;;;13.15;73.88
60974;BME280;46846;51.528;5.076;2023-09-30T10:17:02;102190.66;;;13.12;73.41
60974;BME280;46846;51.528;5.076;2023-09-30T10:19:28;102187.94;;;13.13;73.30
60974;BME280;46846;51.528;5.076;2023-09-30T10:24:39;102171.63;;;13.24;74.22
60974;BME280;46846;51.528;5.076;2023-09-30T10:29:54;102161.81;;;13.26;73.92
60974;BME280;46846;51.528;5.076;2023-09-30T10:32:19;102161.72;;;13.30;74.11
60974;BME280;46846;51.528;5.076;2023-09-30T10:34:48;102162.56;;;13.32;73.93
60974;BME280;46846;51.528;5.076;2023-09-30T10:37:23;102152.72;;;13.34;73.86
60974;BME280;46846;51.528;5.076;2023-09-30T10:39:58;102145.53;;;13.36;73.87
60974;BME280;46846;51.528;5.076;2023-09-30T10:43:06;102144.44;;;13.45;75.28
60974;BME280;46846;51.528;5.076;2023-09-30T10:47:59;102137.25;;;13.48;74.98
60974;BME280;46846;51.528;5.076;2023-09-30T10:50:54;102133.69;;;13.48;74.75
60974;BME280;46846;51.528;5.076;2023-09-30T10:53:20;102124.56;;;13.55;74.82
60974;BME280;46846;51.528;5.076;2023-09-30T10:55:46;102120.94;;;13.58;75.17
60974;BME280;46846;51.528;5.076;2023-09-30T10:58:14;102123.59;;;13.59;74.81
60974;BME280;46846;51.528;5.076;2023-09-30T11:00:50;102123.78;;;13.51;73.68
60974;BME280;46846;51.528;5.076;2023-09-30T11:03:19;102121.91;;;13.55;74.09
60974;BME280;46846;51.528;5.076;2023-09-30T11:05:46;102126.41;;;13.53;74.29
60974;BME280;46846;51.528;5.076;2023-09-30T11:08:12;102121.94;;;13.53;74.15
60974;BME280;46846;51.528;5.076;2023-09-30T11:10:46;102117.19;;;13.65;75.62
60974;BME280;46846;51.528;5.076;2023-09-30T11:13:12;102129.63;;;13.66;74.03
60974;BME280;46846;51.528;5.076;2023-09-30T11:15:37;102116.31;;;13.64;73.68
60974;BME280;46846;51.528;5.076;2023-09-30T11:18:12;102116.31;;;13.64;74.08
60974;BME280;46846;51.528;5.076;2023-09-30T11:20:38;102121.53;;;13.69;73.99
60974;BME280;46846;51.528;5.076;2023-09-30T11:23:03;102125.91;;;13.72;73.90
60974;BME280;46846;51.528;5.076;2023-09-30T11:25:28;102121.50;;;13.71;73.70
60974;BME280;46846;51.528;5.076;2023-09-30T11:28:12;102125.78;;;13.76;73.95
60974;BME280;46846;51.528;5.076;2023-09-30T11:30:52;102116.88;;;13.77;73.91
60974;BME280;46846;51.528;5.076;2023-09-30T11:33:17;102104.22;;;13.83;74.08
60974;BME280;46846;51.528;5.076;2023-09-30T11:35:54;102101.47;;;13.86;74.02
60974;BME280;46846;51.528;5.076;2023-09-30T11:38:20;102102.44;;;13.83;73.61
60974;BME280;46846;51.528;5.076;2023-09-30T11:41:06;102107.72;;;13.85;73.66
60974;BME280;46846;51.528;5.076;2023-09-30T11:43:32;102109.38;;;13.90;73.58
60974;BME280;46846;51.528;5.076;2023-09-30T11:46:07;102111.91;;;13.95;73.69
60974;BME280;46846;51.528;5.076;2023-09-30T11:48:36;102113.56;;;13.99;73.46
60974;BME280;46846;51.528;5.076;2023-09-30T11:51:02;102119.81;;;14.00;73.56
60974;BME280;46846;51.528;5.076;2023-09-30T11:53:32;102117.03;;;14.03;73.52
60974;BME280;46846;51.528;5.076;2023-09-30T11:55:57;102107.91;;;14.10;73.63
60974;BME280;46846;51.528;5.076;2023-09-30T11:58:25;102107.84;;;14.13;73.39
60974;BME280;46846;51.528;5.076;2023-09-30T12:00:52;102104.44;;;14.06;73.06
60974;BME280;46846;51.528;5.076;2023-09-30T12:03:18;102109.94;;;14.02;73.66
60974;BME280;46846;51.528;5.076;2023-09-30T12:05:43;102105.28;;;14.08;73.55
60974;BME280;46846;51.528;5.076;2023-09-30T12:08:10;102106.00;;;14.14;73.36
60974;BME280;46846;51.528;5.076;2023-09-30T12:10:36;102093.63;;;14.11;73.37
60974;BME280;46846;51.528;5.076;2023-09-30T12:13:01;102089.91;;;14.15;73.21
60974;BME280;46846;51.528;5.076;2023-09-30T12:15:26;102087.09;;;14.20;73.09
60974;BME280;46846;51.528;5.076;2023-09-30T12:17:52;102086.03;;;14.26;72.87
60974;BME280;46846;51.528;5.076;2023-09-30T12:20:17;102085.03;;;14.30;72.67
60974;BME280;46846;51.528;5.076;2023-09-30T12:22:43;102082.31;;;14.31;72.62
60974;BME280;46846;51.528;5.076;2023-09-30T12:25:08;102073.34;;;14.32;72.49
60974;BME280;46846;51.528;5.076;2023-09-30T12:27:34;102067.03;;;14.35;72.21
60974;BME280;46846;51.528;5.076;2023-09-30T12:29:59;102066.00;;;14.39;72.32
60974;BME280;46846;51.528;5.076;2023-09-30T12:32:25;102066.78;;;14.43;72.18
60974;BME280;46846;51.528;5.076;2023-09-30T12:34:51;102066.72;;;14.46;72.08
60974;BME280;46846;51.528;5.076;2023-09-30T12:37:17;102064.03;;;14.46;72.42
60974;BME280;46846;51.528;5.076;2023-09-30T12:39:43;102056.81;;;14.48;71.71
60974;BME280;46846;51.528;5.076;2023-09-30T12:42:10;102054.13;;;14.48;71.67
60974;BME280;46846;51.528;5.076;2023-09-30T12:44:37;102057.47;;;14.55;70.78
60974;BME280;46846;51.528;5.076;2023-09-30T12:47:02;102075.31;;;14.56;71.63
60974;BME280;46846;51.528;5.076;2023-09-30T12:49:30;102072.69;;;14.54;71.97
60974;BME280;46846;51.528;5.076;2023-09-30T12:51:55;102070.81;;;14.58;72.08
60974;BME280;46846;51.528;5.076;2023-09-30T12:54:21;102071.56;;;14.61;71.17
60974;BME280;46846;51.528;5.076;2023-09-30T12:56:46;102066.09;;;14.65;71.82
60974;BME280;46846;51.528;5.076;2023-09-30T12:59:12;102062.56;;;14.64;71.67